createdAt,value
2018-10-01T00:02:15.287Z,3.92
2018-10-01T00:04:43.456Z,4.08
2018-10-01T00:07:11.662Z,4.20
2018-10-01T00:09:39.851Z,4.97
2018-10-01T00:12:08.022Z,3.98
2018-10-01T00:14:36.198Z,3.80
2018-10-01T00:17:04.407Z,4.55
2018-10-01T00:19:37.962Z,4.97
2018-10-01T00:22:11.430Z,4.70
2018-10-01T00:24:39.615Z,4.20
2018-10-01T00:27:07.815Z,5.28
2018-10-01T00:29:36.000Z,4.92
2018-10-01T00:32:04.203Z,4.92
2018-10-01T00:34:32.366Z,5.17
2018-10-01T00:37:00.588Z,4.85
2018-10-01T00:39:28.791Z,5.60
2018-10-01T00:41:56.955Z,4.37
2018-10-01T00:44:25.206Z,4.40
2018-10-01T00:46:53.378Z,4.75
2018-10-01T00:49:21.551Z,4.40
2018-10-01T00:51:49.707Z,4.58
2018-10-01T00:54:17.866Z,4.83
2018-10-01T00:56:46.131Z,4.95
2018-10-01T00:59:14.282Z,4.85
2018-10-01T01:01:42.446Z,4.17
2018-10-01T01:04:10.622Z,4.33
2018-10-01T01:06:38.831Z,4.60
2018-10-01T01:09:07.814Z,4.15
2018-10-01T01:11:35.985Z,4.83
2018-10-01T01:14:04.146Z,3.83
2018-10-01T01:16:32.342Z,5.40
2018-10-01T01:19:00.516Z,4.22
2018-10-01T01:21:28.895Z,4.87
2018-10-01T01:23:57.073Z,5.28
2018-10-01T01:26:25.240Z,4.72
2018-10-01T01:28:53.438Z,4.92
2018-10-01T01:31:21.626Z,4.83
2018-10-01T01:33:49.802Z,4.40
2018-10-01T01:36:17.965Z,3.95
2018-10-01T01:38:46.122Z,5.05
2018-10-01T01:41:14.694Z,4.25
2018-10-01T01:43:42.862Z,5.17
2018-10-01T01:46:11.049Z,4.20
2018-10-01T01:48:39.231Z,4.60
2018-10-01T01:51:07.480Z,3.60
2018-10-01T01:53:35.655Z,4.35
2018-10-01T01:56:03.828Z,4.58
2018-10-01T01:58:32.031Z,4.85
2018-10-01T02:01:00.198Z,4.78
2018-10-01T02:03:28.394Z,3.33
2018-10-01T02:05:56.558Z,4.85
2018-10-01T02:08:24.924Z,3.47
2018-10-01T02:10:53.146Z,4.10
2018-10-01T02:13:21.299Z,3.90
2018-10-01T02:15:49.498Z,4.08
2018-10-01T02:18:17.674Z,4.15
2018-10-01T02:20:45.830Z,4.03
2018-10-01T02:23:13.964Z,3.83
2018-10-01T02:25:42.123Z,3.25
2018-10-01T02:28:10.262Z,3.90
2018-10-01T02:30:38.427Z,3.92
2018-10-01T02:33:06.586Z,3.67
2018-10-01T02:35:34.782Z,3.47
2018-10-01T02:38:02.953Z,2.87
2018-10-01T02:40:31.275Z,3.45
2018-10-01T02:42:59.419Z,3.08
2018-10-01T02:45:27.570Z,2.90
2018-10-01T02:47:55.719Z,3.58
2018-10-01T02:50:23.898Z,2.95
2018-10-01T02:52:57.607Z,3.60
2018-10-01T02:55:25.782Z,3.55
2018-10-01T02:57:53.920Z,3.37
2018-10-01T03:00:22.106Z,2.60
2018-10-01T03:02:50.258Z,2.85
2018-10-01T03:05:18.403Z,2.58
2018-10-01T03:07:46.563Z,2.90
2018-10-01T03:10:14.755Z,3.40
2018-10-01T03:12:42.918Z,3.27
2018-10-01T03:15:11.114Z,4.15
2018-10-01T03:17:39.288Z,3.40
2018-10-01T03:20:07.839Z,2.98
2018-10-01T03:22:36.021Z,3.33
2018-10-01T03:25:04.212Z,2.87
2018-10-01T03:27:32.548Z,2.80
2018-10-01T03:30:00.712Z,2.83
2018-10-01T03:32:28.874Z,3.20
2018-10-01T03:34:57.027Z,2.45
2018-10-01T03:37:25.187Z,3.02
2018-10-01T03:39:53.412Z,3.20
2018-10-01T03:42:21.559Z,2.60
2018-10-01T03:44:49.797Z,2.67
2018-10-01T03:47:17.976Z,2.58
2018-10-01T03:49:46.138Z,3.92
2018-10-01T03:52:14.318Z,2.35
2018-10-01T03:54:42.503Z,2.90
2018-10-01T03:57:11.321Z,2.25
2018-10-01T03:59:39.598Z,2.22
2018-10-01T04:02:08.171Z,2.40
2018-10-01T04:04:36.320Z,2.58
2018-10-01T04:07:04.626Z,2.45
2018-10-01T04:09:32.790Z,2.65
2018-10-01T04:12:00.948Z,2.15
2018-10-01T04:14:29.102Z,2.35
2018-10-01T04:16:57.260Z,2.50
2018-10-01T04:19:25.437Z,2.50
2018-10-01T04:21:53.634Z,2.10
2018-10-01T04:24:21.837Z,2.85
2018-10-01T04:26:49.971Z,2.52
2018-10-01T04:29:18.148Z,3.08
2018-10-01T04:31:46.652Z,1.92
2018-10-01T04:34:14.834Z,1.77
2018-10-01T04:36:43.046Z,2.22
2018-10-01T04:39:13.137Z,2.30
2018-10-01T04:41:41.806Z,3.15
2018-10-01T04:44:10.393Z,2.37
2018-10-01T04:46:39.486Z,1.95
2018-10-01T04:49:08.463Z,2.40
2018-10-01T04:51:36.633Z,2.33
2018-10-01T04:54:04.856Z,2.20
2018-10-01T04:56:33.084Z,2.62
2018-10-01T04:59:01.243Z,2.50
2018-10-01T05:01:29.469Z,2.62
2018-10-01T05:03:57.634Z,2.45
2018-10-01T05:06:25.850Z,2.77
2018-10-01T05:08:54.022Z,2.35
2018-10-01T05:11:22.183Z,2.80
2018-10-01T05:13:50.332Z,2.30
2018-10-01T05:16:18.544Z,1.82
2018-10-01T05:18:46.767Z,2.15
2018-10-01T05:21:15.015Z,1.85
2018-10-01T05:23:43.310Z,2.02
2018-10-01T05:26:11.590Z,2.00
2018-10-01T05:28:39.754Z,4.78
2018-10-01T05:31:07.926Z,2.67
2018-10-01T05:33:36.318Z,2.20
2018-10-01T05:36:04.491Z,1.87
2018-10-01T05:38:32.646Z,2.62
2018-10-01T05:41:00.831Z,2.72
2018-10-01T05:43:29.014Z,2.17
2018-10-01T05:45:57.190Z,2.27
2018-10-01T05:48:25.363Z,2.12
2018-10-01T05:50:53.546Z,2.33
2018-10-01T05:53:22.216Z,2.70
2018-10-01T05:55:51.047Z,2.77
2018-10-01T05:58:19.208Z,2.27
2018-10-01T06:00:47.374Z,2.12
2018-10-01T06:03:15.598Z,2.17
2018-10-01T06:05:43.883Z,3.17
2018-10-01T06:08:12.055Z,2.60
2018-10-01T06:10:40.245Z,2.15
2018-10-01T06:13:08.406Z,2.30
2018-10-01T06:15:36.555Z,2.85
2018-10-01T06:18:04.729Z,2.17
2018-10-01T06:20:32.975Z,2.77
2018-10-01T06:23:01.135Z,2.22
2018-10-01T06:25:29.294Z,2.27
2018-10-01T06:27:57.446Z,2.83
2018-10-01T06:30:25.606Z,2.50
2018-10-01T06:32:53.803Z,2.08
2018-10-01T06:35:21.946Z,2.33
2018-10-01T06:37:50.117Z,2.27
2018-10-01T06:40:18.247Z,3.00
2018-10-01T06:42:46.410Z,2.05
2018-10-01T06:45:14.568Z,2.50
2018-10-01T06:47:42.730Z,2.55
2018-10-01T06:50:10.884Z,2.10
2018-10-01T06:52:39.031Z,2.50
2018-10-01T06:55:07.188Z,1.95
2018-10-01T06:57:35.351Z,1.80
2018-10-01T07:00:03.524Z,2.62
2018-10-01T07:02:31.715Z,1.82
2018-10-01T07:04:59.891Z,1.70
2018-10-01T07:07:28.061Z,2.30
2018-10-01T07:09:56.324Z,3.40
2018-10-01T07:12:24.506Z,2.15
2018-10-01T07:14:52.707Z,2.15
2018-10-01T07:17:20.975Z,1.80
2018-10-01T07:19:49.220Z,1.40
2018-10-01T07:22:17.380Z,1.42
2018-10-01T07:24:45.645Z,1.30
2018-10-01T07:27:13.795Z,1.50
2018-10-01T07:29:42.158Z,1.45
2018-10-01T07:32:10.341Z,1.90
2018-10-01T07:34:38.555Z,1.37
2018-10-01T07:37:06.858Z,1.60
2018-10-01T07:39:35.100Z,1.27
2018-10-01T07:42:03.367Z,1.40
2018-10-01T07:44:31.562Z,1.42
2018-10-01T07:46:59.737Z,1.70
2018-10-01T07:49:27.930Z,1.98
2018-10-01T07:51:56.191Z,1.70
2018-10-01T07:54:24.346Z,2.02
2018-10-01T07:56:52.561Z,1.90
2018-10-01T07:59:20.831Z,2.40
2018-10-01T08:01:48.965Z,2.77
2018-10-01T08:04:17.180Z,2.12
2018-10-01T08:06:45.367Z,1.75
2018-10-01T08:09:13.521Z,1.35
2018-10-01T08:11:41.687Z,1.60
2018-10-01T08:14:09.917Z,1.10
2018-10-01T08:16:38.038Z,1.07
2018-10-01T08:19:06.200Z,1.22
2018-10-01T08:21:34.367Z,1.42
2018-10-01T08:24:02.565Z,1.02
2018-10-01T08:26:30.741Z,1.07
2018-10-01T08:28:58.897Z,1.47
2018-10-01T08:31:27.073Z,1.90
2018-10-01T08:33:55.238Z,1.22
2018-10-01T08:36:23.416Z,1.40
2018-10-01T08:38:51.718Z,1.05
2018-10-01T08:41:19.888Z,0.93
2018-10-01T08:43:48.011Z,1.00
2018-10-01T08:46:16.187Z,0.90
2018-10-01T08:48:48.699Z,1.32
2018-10-01T08:51:21.479Z,1.15
2018-10-01T08:53:55.203Z,1.15
2018-10-01T08:56:23.422Z,1.27
2018-10-01T08:58:51.568Z,1.25
2018-10-01T09:01:19.736Z,0.85
2018-10-01T09:03:47.929Z,1.15
2018-10-01T09:06:16.141Z,0.90
2018-10-01T09:08:44.434Z,1.22
2018-10-01T09:11:12.683Z,1.50
2018-10-01T09:13:40.795Z,1.80
2018-10-01T09:16:09.106Z,1.20
2018-10-01T09:18:37.327Z,1.10
2018-10-01T09:21:05.541Z,0.70
2018-10-01T09:23:33.704Z,0.65
2018-10-01T09:26:01.946Z,1.00
2018-10-01T09:28:30.122Z,1.10
2018-10-01T09:30:58.648Z,1.20
2018-10-01T09:33:26.802Z,0.95
2018-10-01T09:35:55.041Z,0.62
2018-10-01T09:38:23.300Z,0.95
2018-10-01T09:40:51.460Z,1.20
2018-10-01T09:43:19.666Z,0.80
2018-10-01T09:45:47.860Z,0.70
2018-10-01T09:48:16.028Z,1.00
2018-10-01T09:50:44.195Z,1.20
2018-10-01T09:53:12.374Z,3.27
2018-10-01T09:55:40.554Z,2.45
2018-10-01T09:58:08.829Z,0.80
2018-10-01T10:00:43.778Z,0.70
2018-10-01T10:03:12.555Z,0.80
2018-10-01T10:05:40.728Z,1.00
2018-10-01T10:08:08.905Z,0.80
2018-10-01T10:10:37.047Z,0.60
2018-10-01T10:13:05.187Z,0.60
2018-10-01T10:15:33.314Z,0.72
2018-10-01T10:18:01.600Z,0.98
2018-10-01T10:20:29.772Z,0.80
2018-10-01T10:22:57.910Z,0.75
2018-10-01T10:25:26.073Z,0.78
2018-10-01T10:27:54.313Z,0.50
2018-10-01T10:30:22.519Z,0.45
2018-10-01T10:32:50.707Z,0.30
2018-10-01T10:35:18.863Z,0.50
2018-10-01T10:37:46.986Z,0.50
2018-10-01T10:40:15.167Z,1.05
2018-10-01T10:42:43.335Z,0.50
2018-10-01T10:45:11.489Z,0.60
2018-10-01T10:47:39.683Z,0.55
2018-10-01T10:50:08.615Z,0.70
2018-10-01T10:52:36.762Z,0.90
2018-10-01T10:55:05.306Z,0.68
2018-10-01T10:57:33.463Z,0.42
2018-10-01T11:00:01.655Z,0.53
2018-10-01T11:02:29.863Z,0.60
2018-10-01T11:04:58.013Z,0.82
2018-10-01T11:07:26.189Z,0.70
2018-10-01T11:09:54.494Z,0.60
2018-10-01T11:12:23.030Z,0.40
2018-10-01T11:14:51.395Z,0.40
2018-10-01T11:17:19.432Z,0.55
2018-10-01T11:19:47.681Z,0.57
2018-10-01T11:22:15.773Z,0.45
2018-10-01T11:24:43.966Z,0.60
2018-10-01T11:27:12.186Z,0.70
2018-10-01T11:29:40.328Z,0.35
2018-10-01T11:32:08.543Z,0.40
2018-10-01T11:34:36.752Z,0.50
2018-10-01T11:37:05.219Z,0.37
2018-10-01T11:39:33.453Z,0.70
2018-10-01T11:42:01.763Z,0.57
2018-10-01T11:44:29.978Z,0.50
2018-10-01T11:46:58.162Z,0.60
2018-10-01T11:49:26.376Z,0.88
2018-10-01T11:51:54.543Z,0.57
2018-10-01T11:54:22.748Z,0.60
2018-10-01T11:56:50.903Z,0.60
2018-10-01T11:59:19.087Z,0.70
2018-10-01T12:01:47.303Z,0.90
2018-10-01T12:04:15.681Z,0.60
2018-10-01T12:06:43.802Z,0.60
2018-10-01T12:09:12.655Z,0.70
2018-10-01T12:11:41.110Z,0.98
2018-10-01T12:14:10.251Z,0.60
2018-10-01T12:16:38.414Z,1.30
2018-10-01T12:19:06.914Z,0.90
2018-10-01T12:21:35.288Z,0.90
2018-10-01T12:24:05.116Z,0.82
2018-10-01T12:26:34.146Z,1.67
2018-10-01T12:29:02.550Z,1.10
2018-10-01T12:31:30.659Z,1.15
2018-10-01T12:33:58.924Z,0.98
2018-10-01T12:36:27.165Z,1.02
2018-10-01T12:38:55.423Z,0.93
2018-10-01T12:41:23.638Z,1.20
2018-10-01T12:43:52.021Z,1.32
2018-10-01T12:46:20.199Z,1.10
2018-10-01T12:48:48.375Z,1.60
2018-10-01T12:51:16.690Z,1.60
2018-10-01T12:53:44.822Z,1.87
2018-10-01T12:56:12.975Z,3.12
2018-10-01T12:58:41.720Z,1.37
2018-10-01T13:01:10.208Z,1.50
2018-10-01T13:03:38.391Z,1.40
2018-10-01T13:06:06.671Z,1.30
2018-10-01T13:08:35.061Z,1.22
2018-10-01T13:11:03.217Z,1.60
2018-10-01T13:13:31.405Z,1.90
2018-10-01T13:15:59.568Z,1.52
2018-10-01T13:18:27.811Z,1.57
2018-10-01T13:20:56.088Z,1.42
2018-10-01T13:23:24.511Z,1.72
2018-10-01T13:25:53.122Z,1.50
2018-10-01T13:28:21.427Z,1.50
2018-10-01T13:30:50.082Z,1.40
2018-10-01T13:33:18.280Z,2.30
2018-10-01T13:35:46.670Z,1.75
2018-10-01T13:38:15.009Z,1.77
2018-10-01T13:40:43.508Z,1.25
2018-10-01T13:43:12.080Z,1.52
2018-10-01T13:45:40.581Z,2.15
2018-10-01T13:48:09.178Z,1.72
2018-10-01T13:50:37.637Z,1.70
2018-10-01T13:53:06.025Z,2.02
2018-10-01T13:55:34.404Z,1.90
2018-10-01T13:58:02.740Z,2.35
2018-10-01T14:00:31.101Z,1.40
2018-10-01T14:02:59.411Z,1.40
2018-10-01T14:05:27.763Z,2.20
2018-10-01T14:07:56.149Z,1.60
2018-10-01T14:10:24.564Z,1.70
2018-10-01T14:12:52.950Z,1.40
2018-10-01T14:15:21.354Z,1.92
2018-10-01T14:17:49.812Z,1.55
2018-10-01T14:20:18.099Z,1.70
2018-10-01T14:22:46.691Z,1.72
2018-10-01T14:25:15.283Z,2.27
2018-10-01T14:27:44.403Z,1.60
2018-10-01T14:30:12.805Z,1.47
2018-10-01T14:32:41.342Z,1.15
2018-10-01T14:35:09.672Z,0.93
2018-10-01T14:37:38.118Z,1.62
2018-10-01T14:40:06.463Z,1.22
2018-10-01T14:42:34.743Z,1.12
2018-10-01T14:45:02.975Z,1.62
2018-10-01T14:47:31.281Z,1.47
2018-10-01T14:49:59.627Z,1.27
2018-10-01T14:52:27.782Z,1.20
2018-10-01T14:54:56.018Z,1.00
2018-10-01T14:57:24.187Z,1.45
2018-10-01T14:59:52.396Z,1.42
2018-10-01T15:02:20.580Z,1.20
2018-10-01T15:04:48.727Z,1.10
2018-10-01T15:07:16.929Z,1.20
2018-10-01T15:09:45.122Z,1.05
2018-10-01T15:12:13.548Z,1.00
2018-10-01T15:14:41.682Z,1.12
2018-10-01T15:17:09.883Z,1.05
2018-10-01T15:19:38.069Z,1.00
2018-10-01T15:22:06.297Z,0.70
2018-10-01T15:24:34.551Z,1.02
2018-10-01T15:27:02.720Z,1.07
2018-10-01T15:29:30.908Z,5.67
2018-10-01T15:31:59.093Z,1.35
2018-10-01T15:34:27.297Z,0.98
2018-10-01T15:36:55.517Z,1.22
2018-10-01T15:39:23.674Z,0.88
2018-10-01T15:41:51.812Z,1.07
2018-10-01T15:44:20.113Z,0.70
2018-10-01T15:46:48.773Z,0.95
2018-10-01T15:49:16.999Z,1.02
2018-10-01T15:51:45.155Z,0.78
2018-10-01T15:54:13.314Z,0.78
2018-10-01T15:56:41.491Z,0.80
2018-10-01T15:59:09.683Z,0.88
2018-10-01T16:01:37.844Z,1.07
2018-10-01T16:04:06.125Z,1.10
2018-10-01T16:06:34.309Z,0.95
2018-10-01T16:09:02.468Z,1.25
2018-10-01T16:11:30.894Z,1.05
2018-10-01T16:13:59.235Z,1.37
2018-10-01T16:16:27.432Z,1.20
2018-10-01T16:18:55.627Z,1.00
2018-10-01T16:21:23.812Z,0.78
2018-10-01T16:23:51.984Z,0.95
2018-10-01T16:26:20.138Z,1.10
2018-10-01T16:28:48.383Z,0.93
2018-10-01T16:31:16.615Z,1.00
2018-10-01T16:33:44.746Z,1.20
2018-10-01T16:36:13.183Z,1.70
2018-10-01T16:38:41.647Z,1.15
2018-10-01T16:41:09.945Z,1.22
2018-10-01T16:43:38.132Z,1.40
2018-10-01T16:46:06.371Z,1.42
2018-10-01T16:48:34.583Z,1.90
2018-10-01T16:51:02.886Z,1.35
2018-10-01T16:53:31.084Z,1.32
2018-10-01T16:55:59.323Z,1.77
2018-10-01T16:58:27.841Z,1.52
2018-10-01T17:00:56.103Z,1.92
2018-10-01T17:03:24.528Z,1.72
2018-10-01T17:05:56.509Z,1.70
2018-10-01T17:08:25.378Z,1.52
2018-10-01T17:10:53.831Z,1.75
2018-10-01T17:13:22.466Z,1.85
2018-10-01T17:15:50.692Z,2.15
2018-10-01T17:18:19.131Z,1.50
2018-10-01T17:20:47.281Z,1.72
2018-10-01T17:23:15.460Z,1.77
2018-10-01T17:25:43.754Z,1.30
2018-10-01T17:28:12.025Z,1.70
2018-10-01T17:30:40.448Z,1.75
2018-10-01T17:33:08.676Z,1.35
2018-10-01T17:35:36.916Z,1.65
2018-10-01T17:38:05.187Z,1.37
2018-10-01T17:40:33.371Z,1.12
2018-10-01T17:43:01.626Z,1.92
2018-10-01T17:45:29.859Z,2.22
2018-10-01T17:47:58.255Z,2.45
2018-10-01T17:50:26.863Z,2.00
2018-10-01T17:52:55.058Z,1.80
2018-10-01T17:55:23.206Z,1.80
2018-10-01T17:57:51.370Z,1.98
2018-10-01T18:00:19.822Z,1.95
2018-10-01T18:02:48.034Z,2.15
2018-10-01T18:05:16.214Z,1.77
2018-10-01T18:07:44.458Z,1.50
2018-10-01T18:10:12.623Z,1.60
2018-10-01T18:12:40.923Z,1.72
2018-10-01T18:15:09.531Z,1.77
2018-10-01T18:17:37.760Z,1.12
2018-10-01T18:20:05.972Z,0.95
2018-10-01T18:22:34.131Z,2.00
2018-10-01T18:25:02.488Z,1.20
2018-10-01T18:27:30.647Z,1.62
2018-10-01T18:29:58.825Z,2.50
2018-10-01T18:32:27.119Z,2.33
2018-10-01T18:34:55.452Z,2.62
2018-10-01T18:37:23.608Z,2.37
2018-10-01T18:39:51.929Z,1.95
2018-10-01T18:42:20.139Z,1.42
2018-10-01T18:44:48.231Z,1.77
2018-10-01T18:47:16.410Z,1.90
2018-10-01T18:49:44.575Z,1.50
2018-10-01T18:52:12.851Z,1.85
2018-10-01T18:54:41.031Z,1.37
2018-10-01T18:57:09.366Z,1.85
2018-10-01T18:59:37.559Z,1.82
2018-10-01T19:02:05.777Z,1.47
2018-10-01T19:04:34.236Z,2.08
2018-10-01T19:07:02.427Z,1.30
2018-10-01T19:09:30.617Z,1.42
2018-10-01T19:11:58.839Z,1.52
2018-10-01T19:14:26.935Z,2.05
2018-10-01T19:16:55.165Z,2.15
2018-10-01T19:19:23.274Z,2.10
2018-10-01T19:21:51.426Z,2.25
2018-10-01T19:24:19.644Z,1.60
2018-10-01T19:26:47.800Z,1.30
2018-10-01T19:29:15.917Z,1.87
2018-10-01T19:31:44.201Z,1.98
2018-10-01T19:34:12.300Z,2.02
2018-10-01T19:36:40.471Z,1.90
2018-10-01T19:39:09.081Z,1.32
2018-10-01T19:41:37.234Z,1.80
2018-10-01T19:44:05.473Z,1.72
2018-10-01T19:46:33.835Z,1.95
2018-10-01T19:49:02.016Z,1.47
2018-10-01T19:51:30.215Z,1.90
2018-10-01T19:53:58.403Z,1.47
2018-10-01T19:56:26.595Z,1.60
2018-10-01T19:58:54.824Z,1.65
2018-10-01T20:01:22.938Z,1.72
2018-10-01T20:03:51.195Z,2.00
2018-10-01T20:06:19.400Z,2.10
2018-10-01T20:08:47.644Z,1.70
2018-10-01T20:11:15.863Z,1.75
2018-10-01T20:13:44.005Z,1.75
2018-10-01T20:16:12.309Z,1.50
2018-10-01T20:18:40.502Z,1.80
2018-10-01T20:21:08.754Z,1.80
2018-10-01T20:23:37.606Z,1.80
2018-10-01T20:26:05.873Z,3.27
2018-10-01T20:28:34.313Z,8.50
2018-10-01T20:31:02.459Z,2.60
2018-10-01T20:33:30.627Z,1.98
2018-10-01T20:35:58.978Z,1.65
2018-10-01T20:38:27.079Z,1.55
2018-10-01T20:40:55.300Z,1.82
2018-10-01T20:43:23.463Z,2.07
2018-10-01T20:45:51.778Z,2.25
2018-10-01T20:48:19.910Z,1.90
2018-10-01T20:50:48.070Z,1.47
2018-10-01T20:53:16.517Z,2.27
2018-10-01T20:55:44.716Z,1.40
2018-10-01T20:58:12.867Z,1.45
2018-10-01T21:00:41.078Z,1.53
2018-10-01T21:03:09.255Z,1.70
2018-10-01T21:05:37.448Z,1.00
2018-10-01T21:08:05.629Z,2.00
2018-10-01T21:10:33.807Z,1.43
2018-10-01T21:13:01.981Z,2.02
2018-10-01T21:15:30.146Z,1.60
2018-10-01T21:17:58.314Z,1.70
2018-10-01T21:20:26.448Z,1.20
2018-10-01T21:22:54.636Z,1.40
2018-10-01T21:25:22.795Z,1.65
2018-10-01T21:27:50.943Z,1.97
2018-10-01T21:30:19.147Z,1.67
2018-10-01T21:32:47.339Z,1.77
2018-10-01T21:35:15.508Z,1.43
2018-10-01T21:37:43.659Z,1.47
2018-10-01T21:40:12.855Z,1.57
2018-10-01T21:42:41.098Z,1.30
2018-10-01T21:45:10.128Z,1.80
2018-10-01T21:47:38.291Z,1.77
2018-10-01T21:50:06.456Z,1.67
2018-10-01T21:52:34.643Z,1.87
2018-10-01T21:55:02.815Z,1.60
2018-10-01T21:57:30.967Z,1.60
2018-10-01T21:59:59.154Z,1.50
2018-10-01T22:02:27.327Z,1.70
2018-10-01T22:04:55.496Z,2.00
2018-10-01T22:07:23.684Z,2.07
2018-10-01T22:09:51.912Z,1.40
2018-10-01T22:12:20.093Z,2.00
2018-10-01T22:14:48.255Z,2.20
2018-10-01T22:17:16.415Z,1.83
2018-10-01T22:19:44.607Z,1.90
2018-10-01T22:22:12.783Z,1.90
2018-10-01T22:24:41.037Z,1.60
2018-10-01T22:27:09.182Z,1.97
2018-10-01T22:29:37.367Z,2.17
2018-10-01T22:32:05.587Z,1.70
2018-10-01T22:34:33.820Z,1.80
2018-10-01T22:37:02.080Z,1.70
2018-10-01T22:39:30.263Z,1.80
2018-10-01T22:41:58.469Z,2.00
2018-10-01T22:44:26.618Z,1.93
2018-10-01T22:46:54.847Z,2.23
2018-10-01T22:49:23.050Z,1.70
2018-10-01T22:51:51.319Z,1.83
2018-10-01T22:54:19.590Z,1.90
2018-10-01T22:56:47.788Z,2.07
2018-10-01T22:59:15.983Z,1.80
2018-10-01T23:01:44.182Z,1.70
2018-10-01T23:04:12.352Z,1.63
2018-10-01T23:06:40.536Z,2.70
2018-10-01T23:09:09.172Z,1.67
2018-10-01T23:11:37.423Z,2.13
2018-10-01T23:14:05.718Z,1.80
2018-10-01T23:16:34.244Z,1.57
2018-10-01T23:19:02.442Z,2.40
2018-10-01T23:21:30.611Z,2.17
2018-10-01T23:23:58.778Z,2.57
2018-10-01T23:26:26.974Z,2.43
2018-10-01T23:28:55.143Z,1.60
2018-10-01T23:31:23.339Z,1.70
2018-10-01T23:33:51.526Z,2.00
2018-10-01T23:36:19.747Z,1.70
2018-10-01T23:38:47.922Z,2.40
2018-10-01T23:41:16.182Z,2.07
2018-10-01T23:43:44.350Z,1.80
2018-10-01T23:46:12.570Z,1.70
2018-10-01T23:48:40.755Z,1.70
2018-10-01T23:51:09.003Z,1.93
2018-10-01T23:53:37.191Z,2.07
2018-10-01T23:56:05.368Z,1.60
2018-10-01T23:58:34.368Z,1.50
